メインページ
METAR-TAF:

METAR-TAF

空港 :

桂林, 中華人民共和国

桂林両江国際空港

緯度: 25-20N, 経度: 110-18E, 海抜: 166m

現時点の気象観測

当レポートは34分前の19:00(UTC)に作成
無風
気温 8°C
湿度 93%
気圧 1022 hPa
視程10km以上
部分的に霧に覆われる

METAR: ZGKL 251900Z 00000MPS 9999 PRFG NSC 08/07 Q1022 NOSIG

時間: 03:34 (19:34 UTC)

予報

当レポートは4時間24分前の15:10(UTC)に作成
予報は25日の 18時(UTC)から 26日の 18時(UTC)まで有効
北東の風 6kt
視程: 6000m
高度3300ftの雲は散在している
高度6000ftの千切れ雲あり
25日の 18時(UTC)から 25日の 24時(UTC)まで一時的に
視程: 2000m

TAF: ZGKL 251510Z 2518/2618 05003MPS 6000 SCT033 BKN060 TX18/2608Z TN10/2522Z TEMPO 2518/2524 2000 BR

4,000以上の空港の気象観測と天気予報(METAR報とTAF報)

利用可能な観測所は地図上に黄色い丸と赤い丸で示す。

丸の上にカーソルを重ねると観測所名を参照できる。

次にクリックすると気象観測と天気予報を参照できる。

マップの切り替え:黒色「×」印の緑ボタンをクリックして拡大、「-」印の緑ボタンをクリックして縮小、緑色の三角印をクリックして隣りの地図に切り替え


METAR-TAF: